Time;durP1;ratioP1;P1;durP2;ratioP2;P2;SDS_P1;SDS_P2;PMS_P1;PMS_P2;Temp;Humidity;BMP_temperature;BMP_pressure;BME280_temperature;BME280_humidity;BME280_pressure;Samples;Min_cycle;Max_cycle;Signal;HPM_P1;HPM_P2
2023/09/12 00:00:47;;;;;;;2.50;1.50;;;;;;;20.24;36.42;99826.72;4857732;29;20053;-39
2023/09/12 00:03:12;;;;;;;1.77;1.17;;;;;;;20.23;37.27;99833.19;4858296;29;20025;-39
2023/09/12 00:05:38;;;;;;;2.40;1.20;;;;;;;20.24;36.98;99838.34;4864088;29;20191;-39
2023/09/12 00:08:04;;;;;;;1.77;1.30;;;;;;;20.30;37.42;99831.84;4863961;29;20108;-39
2023/09/12 00:10:29;;;;;;;1.48;1.20;;;;;;;20.33;37.01;99825.09;4864112;29;20045;-39
2023/09/12 00:12:55;;;;;;;3.30;1.35;;;;;;;20.31;37.40;99832.66;4864130;29;20053;-40
2023/09/12 00:15:21;;;;;;;2.65;1.33;;;;;;;20.30;37.51;99833.75;4864198;29;20520;-40
2023/09/12 00:17:48;;;;;;;2.03;1.50;;;;;;;20.33;37.82;99838.63;4863893;29;20025;-40
2023/09/12 00:20:14;;;;;;;1.70;1.45;;;;;;;20.27;37.94;99834.28;4863854;29;20113;-40
2023/09/12 00:22:39;;;;;;;1.98;1.40;;;;;;;20.29;37.53;99841.03;4863882;29;20104;-39
2023/09/12 00:25:06;;;;;;;2.17;1.30;;;;;;;20.30;37.84;99844.56;4863690;29;20025;-39
2023/09/12 00:27:32;;;;;;;2.17;1.30;;;;;;;20.34;37.45;99840.25;4863647;29;20021;-39
2023/09/12 00:29:57;;;;;;;2.63;1.38;;;;;;;20.31;37.81;99846.19;4863960;29;20051;-40
2023/09/12 00:32:22;;;;;;;2.30;1.45;;;;;;;20.26;37.66;99851.59;4863568;29;20086;-39
2023/09/12 00:34:48;;;;;;;4.30;1.35;;;;;;;20.24;37.84;99849.13;4863480;29;20037;-39
2023/09/12 00:37:13;;;;;;;2.75;1.50;;;;;;;20.27;37.84;99845.09;4863730;29;20040;-40
2023/09/12 00:39:39;;;;;;;2.45;1.52;;;;;;;20.29;38.16;99846.44;4863866;29;20102;-39
2023/09/12 00:42:07;;;;;;;2.90;1.50;;;;;;;20.26;38.89;99838.06;4863677;29;20041;-39
2023/09/12 00:44:33;;;;;;;1.88;1.38;;;;;;;20.26;38.42;99846.19;4863645;29;20605;-39
2023/09/12 00:46:59;;;;;;;2.40;1.60;;;;;;;20.21;38.80;99849.66;4863465;29;20030;-40
2023/09/12 00:49:25;;;;;;;2.30;1.48;;;;;;;20.24;38.67;99845.63;4863531;29;20378;-40
2023/09/12 00:51:51;;;;;;;4.72;1.70;;;;;;;20.24;38.54;99851.84;4863545;29;20092;-40
2023/09/12 00:54:17;;;;;;;2.25;1.50;;;;;;;20.12;39.02;99845.84;4864038;29;20026;-40
2023/09/12 00:56:42;;;;;;;3.78;1.70;;;;;;;20.15;38.89;99848.03;4863798;29;20025;-40
2023/09/12 00:59:08;;;;;;;3.20;1.75;;;;;;;20.13;39.10;99854.78;4863427;29;20521;-39
2023/09/12 01:01:34;;;;;;;2.53;1.45;;;;;;;20.05;39.61;99848.00;4863473;29;20038;-39
2023/09/12 01:04:01;;;;;;;5.57;2.00;;;;;;;20.11;39.44;99850.44;4863622;29;20033;-40
2023/09/12 01:06:29;;;;;;;8.40;2.08;;;;;;;20.05;39.96;99851.50;4863403;29;20578;-39
2023/09/12 01:08:55;;;;;;;8.70;1.90;;;;;;;19.91;40.37;99853.03;4863487;29;20089;-40
2023/09/12 01:11:21;;;;;;;6.20;2.00;;;;;;;19.98;40.55;99850.13;4863430;29;20115;-40
2023/09/12 01:13:46;;;;;;;4.55;1.95;;;;;;;20.04;40.34;99846.34;4863318;29;20439;-40
2023/09/12 01:16:11;;;;;;;3.17;2.10;;;;;;;20.02;40.67;99848.50;4860166;29;20124;-40
2023/09/12 01:18:37;;;;;;;3.20;2.00;;;;;;;19.94;40.77;99854.41;4846662;29;20035;-40
2023/09/12 01:21:15;;;;;;;4.18;2.00;;;;;;;19.89;40.98;99858.69;4841781;29;20438;-39
2023/09/12 01:24:29;;;;;;;4.40;1.75;;;;;;;20.05;40.53;99854.19;4842208;29;20467;-39
2023/09/12 01:27:21;;;;;;;4.43;1.95;;;;;;;19.92;41.31;99865.47;4839558;29;20042;-39
2023/09/12 01:29:49;;;;;;;2.83;1.90;;;;;;;19.88;41.74;99859.78;4841968;29;20025;-47
2023/09/12 01:32:15;;;;;;;2.83;1.90;;;;;;;19.83;41.78;99859.75;4860106;29;20030;-39
2023/09/12 01:34:41;;;;;;;2.97;2.05;;;;;;;19.79;42.02;99857.84;4860011;29;20053;-39
2023/09/12 01:37:06;;;;;;;4.68;1.98;;;;;;;19.92;41.87;99860.06;4860138;29;20029;-39
2023/09/12 01:39:32;;;;;;;4.13;1.85;;;;;;;19.80;42.45;99864.84;4860119;29;20064;-40
2023/09/12 01:41:59;;;;;;;4.55;1.92;;;;;;;19.85;42.29;99860.28;4860066;29;20033;-40
2023/09/12 01:44:27;;;;;;;6.60;2.95;;;;;;;19.72;42.69;99866.16;4859858;29;20037;-40
2023/09/12 01:46:54;;;;;;;4.32;2.10;;;;;;;19.72;42.69;99867.00;4860108;29;20026;-39
2023/09/12 01:49:22;;;;;;;3.63;2.10;;;;;;;19.58;43.10;99876.56;4859921;29;20501;-40
2023/09/12 01:51:48;;;;;;;3.72;2.20;;;;;;;19.65;42.87;99870.97;4859850;29;20558;-40
2023/09/12 01:54:14;;;;;;;4.20;2.03;;;;;;;19.53;43.42;99869.28;4859744;29;20029;-40
2023/09/12 01:56:40;;;;;;;5.32;2.22;;;;;;;19.50;43.20;99877.06;4860147;29;20040;-40
2023/09/12 01:59:06;;;;;;;4.68;2.20;;;;;;;19.41;43.74;99873.22;4860242;29;20049;-41
2023/09/12 02:01:31;;;;;;;5.53;2.30;;;;;;;19.34;43.79;99874.25;4860488;29;20059;-40
2023/09/12 02:03:57;;;;;;;4.53;2.45;;;;;;;19.32;44.18;99875.56;4860418;29;20033;-39
2023/09/12 02:06:23;;;;;;;5.85;2.10;;;;;;;19.33;43.92;99877.22;4860060;29;20035;-39
2023/09/12 02:08:48;;;;;;;5.68;2.30;;;;;;;19.34;44.29;99879.66;4860205;29;20093;-40
2023/09/12 02:11:14;;;;;;;4.30;2.53;;;;;;;19.28;44.69;99875.28;4860421;29;20018;-40
2023/09/12 02:13:39;;;;;;;4.40;2.30;;;;;;;19.31;44.55;99868.56;4859989;29;20029;-40
2023/09/12 02:16:05;;;;;;;4.32;2.47;;;;;;;19.33;44.43;99872.63;4860255;29;20116;-40
2023/09/12 02:18:30;;;;;;;4.28;2.22;;;;;;;19.25;44.47;99875.00;4847251;29;20184;-40
2023/09/12 02:20:55;;;;;;;4.20;2.35;;;;;;;19.16;45.05;99879.22;4841492;29;20045;-40
2023/09/12 02:23:21;;;;;;;6.75;2.63;;;;;;;19.06;45.28;99871.88;4841502;29;20026;-40
2023/09/12 02:25:46;;;;;;;6.95;2.70;;;;;;;19.06;45.58;99869.97;4841594;29;20030;-40
2023/09/12 02:28:12;;;;;;;4.72;2.60;;;;;;;19.16;45.71;99874.66;4841415;29;20057;-40
2023/09/12 02:30:40;;;;;;;7.68;2.70;;;;;;;19.02;46.56;99865.34;4841637;29;20094;-40
2023/09/12 02:33:06;;;;;;;4.18;2.33;;;;;;;19.16;46.09;99871.16;4841193;29;20117;-38
2023/09/12 02:35:31;;;;;;;6.63;2.40;;;;;;;19.28;47.57;99879.88;4856230;29;20112;-38
2023/09/12 02:37:57;;;;;;;5.78;2.20;;;;;;;19.48;46.60;99871.13;4859735;29;20048;-41
2023/09/12 02:40:22;;;;;;;6.82;2.28;;;;;;;19.80;48.68;99879.19;4859851;29;20033;-41
2023/09/12 02:42:48;;;;;;;4.93;2.08;;;;;;;20.13;48.11;99876.38;4859847;29;20482;-39
2023/09/12 02:45:13;;;;;;;4.40;1.90;;;;;;;20.26;46.74;99874.00;4859467;29;20444;-39
2023/09/12 02:47:38;;;;;;;6.03;2.40;;;;;;;20.42;46.58;99876.75;4859491;29;20029;-39
2023/09/12 02:50:04;;;;;;;5.43;2.75;;;;;;;20.60;46.43;99868.19;4859743;29;20495;-39
2023/09/12 02:52:30;;;;;;;8.52;2.60;;;;;;;20.76;46.08;99871.72;4859241;29;20032;-39
2023/09/12 02:54:55;;;;;;;6.97;2.88;;;;;;;20.75;46.58;99864.69;4859594;29;20032;-40
2023/09/12 02:57:21;;;;;;;4.30;2.42;;;;;;;20.77;46.04;99875.25;4859440;29;20042;-40
2023/09/12 02:59:47;;;;;;;6.07;2.35;;;;;;;20.65;44.45;99870.91;4859083;29;20137;-40
2023/09/12 03:02:12;;;;;;;5.60;2.63;;;;;;;20.57;44.79;99874.09;4859442;29;20033;-40
2023/09/12 03:04:37;;;;;;;5.38;2.70;;;;;;;20.43;43.98;99871.09;4859089;29;20139;-40
2023/09/12 03:07:03;;;;;;;5.47;2.53;;;;;;;20.13;44.53;99866.38;4859348;29;20045;-40
2023/09/12 03:09:28;;;;;;;3.35;2.47;;;;;;;20.00;45.11;99867.66;4858914;29;20041;-39
2023/09/12 03:11:54;;;;;;;5.28;2.60;;;;;;;19.91;44.88;99880.88;4858790;29;20133;-40
2023/09/12 03:14:19;;;;;;;3.67;2.50;;;;;;;19.79;45.61;99880.25;4858652;29;20090;-40
2023/09/12 03:16:45;;;;;;;42.47;24.98;;;;;;;19.79;45.41;99879.44;4858569;29;20025;-40
2023/09/12 03:19:10;;;;;;;23.73;13.93;;;;;;;19.81;45.56;99880.78;4840786;29;20030;-40
2023/09/12 03:21:35;;;;;;;15.90;8.60;;;;;;;19.65;46.06;99876.38;4840181;29;20451;-40
2023/09/12 03:24:01;;;;;;;19.13;10.10;;;;;;;19.65;46.10;99885.28;4840315;29;20033;-38
2023/09/12 03:26:26;;;;;;;8.40;4.28;;;;;;;19.43;47.06;99885.38;4839891;29;20448;-39
2023/09/12 03:28:52;;;;;;;7.38;3.53;;;;;;;19.42;46.67;99894.56;4840023;29;20033;-40
2023/09/12 03:31:18;;;;;;;5.82;2.72;;;;;;;19.33;46.85;99888.81;4839681;29;20027;-39
2023/09/12 03:33:47;;;;;;;6.13;3.00;;;;;;;19.33;46.76;99888.00;4839915;29;20511;-39
2023/09/12 03:36:13;;;;;;;5.30;2.72;;;;;;;19.29;46.80;99895.78;4839796;29;20490;-39
2023/09/12 03:38:38;;;;;;;6.93;2.80;;;;;;;19.11;47.21;99891.59;4839564;29;20102;-39
2023/09/12 03:41:04;;;;;;;5.45;2.80;;;;;;;19.06;47.16;99886.16;4839687;29;20033;-39
2023/09/12 03:43:30;;;;;;;7.07;2.97;;;;;;;19.06;47.46;99888.88;4839731;29;20044;-39
2023/09/12 03:45:55;;;;;;;6.53;2.75;;;;;;;19.17;47.59;99889.75;4839954;29;20026;-40
2023/09/12 03:48:21;;;;;;;6.00;3.78;;;;;;;19.24;46.99;99895.75;4839799;29;20067;-39
2023/09/12 03:50:46;;;;;;;8.95;4.00;;;;;;;19.17;47.23;99897.03;4840085;29;20026;-39
2023/09/12 03:53:14;;;;;;;5.57;3.17;;;;;;;19.12;46.72;99904.00;4839637;29;20026;-40
2023/09/12 03:55:39;;;;;;;10.73;3.30;;;;;;;19.17;47.17;99905.13;4839774;29;20065;-40
2023/09/12 03:58:05;;;;;;;5.47;3.15;;;;;;;19.23;46.43;99901.38;4838975;29;20088;-40
2023/09/12 04:00:30;;;;;;;6.55;3.13;;;;;;;19.30;46.26;99913.59;4839443;29;20050;-39
2023/09/12 04:02:56;;;;;;;6.47;3.05;;;;;;;19.25;46.61;99913.56;4839861;29;20089;-39
2023/09/12 04:05:21;;;;;;;4.70;3.10;;;;;;;19.20;46.84;99910.00;4840185;29;20022;-39
2023/09/12 04:07:47;;;;;;;4.35;2.95;;;;;;;19.16;47.07;99912.41;4842258;29;20483;-39
2023/09/12 04:10:13;;;;;;;5.88;2.65;;;;;;;19.24;47.41;99916.53;4840029;29;20026;-39
2023/09/12 04:12:38;;;;;;;5.85;3.10;;;;;;;19.15;47.22;99924.25;4839639;29;20030;-39
2023/09/12 04:15:06;;;;;;;7.45;3.42;;;;;;;19.22;47.38;99918.66;4839976;29;20104;-39
2023/09/12 04:17:31;;;;;;;7.47;3.38;;;;;;;19.34;47.10;99900.41;4844783;29;20041;-39
2023/09/12 04:19:57;;;;;;;4.70;3.50;;;;;;;19.48;47.06;99917.81;4858283;29;20380;-39
2023/09/12 04:22:22;;;;;;;9.55;3.75;;;;;;;19.57;46.95;99915.44;4858576;29;20097;-39
2023/09/12 04:24:47;;;;;;;9.70;3.17;;;;;;;19.69;46.90;99913.38;4853455;29;20388;-39
2023/09/12 04:27:13;;;;;;;7.60;3.40;;;;;;;19.69;46.97;99913.38;4843336;29;20022;-40
2023/09/12 04:29:39;;;;;;;3.90;2.55;;;;;;;19.98;46.56;99907.63;4840302;29;20399;-39
2023/09/12 04:32:05;;;;;;;7.18;3.30;;;;;;;20.15;45.94;99904.75;4859033;29;20061;-39
2023/09/12 04:34:31;;;;;;;3.92;2.50;;;;;;;20.45;45.23;99917.59;4858815;29;20033;-39
2023/09/12 04:36:56;;;;;;;3.88;2.60;;;;;;;20.72;44.84;99910.41;4858989;29;20128;-39
2023/09/12 04:39:22;;;;;;;6.22;2.78;;;;;;;20.81;44.62;99912.31;4858797;29;20504;-39
2023/09/12 04:41:48;;;;;;;3.30;2.63;;;;;;;21.10;44.27;99917.22;4858919;29;20036;-39
2023/09/12 04:44:14;;;;;;;5.03;2.83;;;;;;;21.19;43.70;99912.91;4858567;29;20406;-39
2023/09/12 04:46:39;;;;;;;4.07;2.70;;;;;;;21.57;43.06;99918.06;4858900;29;20394;-42
2023/09/12 04:49:05;;;;;;;6.78;3.08;;;;;;;21.62;42.93;99918.06;4858792;29;20161;-39
2023/09/12 04:51:30;;;;;;;14.73;9.45;;;;;;;21.95;42.22;99926.69;4860074;29;20060;-39
2023/09/12 04:53:55;;;;;;;6.43;4.45;;;;;;;22.31;41.43;99918.47;4861792;29;20030;-40
2023/09/12 04:56:24;;;;;;;10.65;4.95;;;;;;;22.43;41.30;99919.78;4862288;29;20104;-39
2023/09/12 04:58:49;;;;;;;5.05;3.33;;;;;;;22.83;40.30;99917.16;4862049;29;20197;-40
2023/09/12 05:01:15;;;;;;;6.10;3.00;;;;;;;23.11;39.88;99915.59;4861454;29;20104;-40
2023/09/12 05:03:40;;;;;;;6.53;3.20;;;;;;;23.29;39.06;99919.56;4861498;29;20029;-39
2023/09/12 05:06:05;;;;;;;7.38;3.38;;;;;;;23.65;38.92;99915.72;4861539;29;20033;-40
2023/09/12 05:08:31;;;;;;;6.60;4.03;;;;;;;24.04;37.84;99914.81;4861384;29;20037;-40
2023/09/12 05:10:56;;;;;;;4.78;3.53;;;;;;;24.45;37.27;99920.56;4859916;29;20028;-40
2023/09/12 05:13:22;;;;;;;6.68;4.40;;;;;;;24.61;36.87;99915.75;4860507;29;20035;-39
2023/09/12 05:15:47;;;;;;;9.50;4.20;;;;;;;24.92;35.80;99918.03;4860383;29;20041;-41
2023/09/12 05:18:12;;;;;;;5.63;2.90;;;;;;;25.03;35.65;99916.00;4857059;29;20112;-40
2023/09/12 05:20:38;;;;;;;6.32;3.13;;;;;;;25.19;35.25;99917.38;4858071;29;20025;-40
2023/09/12 05:23:04;;;;;;;6.47;2.83;;;;;;;25.34;34.78;99924.50;4842684;29;20030;-39
2023/09/12 05:25:30;;;;;;;7.88;2.70;;;;;;;25.77;34.53;99924.31;4853327;29;20040;-39
2023/09/12 05:27:55;;;;;;;7.65;2.85;;;;;;;25.99;33.75;99920.13;4860413;29;20029;-41
2023/09/12 05:30:21;;;;;;;4.68;3.00;;;;;;;26.23;33.59;99933.56;4860393;29;20033;-41
2023/09/12 05:32:47;;;;;;;6.30;4.10;;;;;;;26.52;33.14;99917.69;4860435;29;20025;-42
2023/09/12 05:35:12;;;;;;;6.55;4.63;;;;;;;26.95;32.40;99907.50;4860620;29;20036;-46
2023/09/12 05:37:37;;;;;;;4.10;2.72;;;;;;;27.24;32.14;99916.06;4860485;29;20501;-44
2023/09/12 05:40:04;;;;;;;6.03;2.45;;;;;;;27.60;31.40;99917.13;4849989;29;20033;-42
2023/09/12 05:42:29;;;;;;;6.65;3.00;;;;;;;27.77;30.96;99917.19;4849906;29;20022;-45
2023/09/12 05:44:56;;;;;;;4.03;2.65;;;;;;;27.68;30.69;99919.06;4848490;29;20486;-43
2023/09/12 05:47:22;;;;;;;5.78;3.38;;;;;;;27.50;30.87;99920.91;4836823;29;20030;-41
2023/09/12 05:49:48;;;;;;;5.20;2.47;;;;;;;27.80;30.48;99911.13;4849722;29;20105;-42
2023/09/12 05:52:14;;;;;;;4.82;2.50;;;;;;;28.38;30.09;99914.69;4849783;29;20043;-40
2023/09/12 05:54:42;;;;;;;5.82;2.67;;;;;;;28.60;29.45;99902.88;4852752;29;20073;-43
2023/09/12 05:57:09;;;;;;;4.90;2.40;;;;;;;27.71;30.65;99912.19;4850041;29;20422;-43
2023/09/12 05:59:37;;;;;;;3.22;2.47;;;;;;;27.49;31.01;99895.53;4845545;29;20303;-43
2023/09/12 06:02:02;;;;;;;4.03;2.42;;;;;;;27.54;31.35;99900.03;4853558;29;20037;-42
2023/09/12 06:04:28;;;;;;;4.60;2.40;;;;;;;27.47;31.97;99905.97;4854003;29;20025;-42
2023/09/12 06:06:53;;;;;;;3.22;2.25;;;;;;;27.26;32.32;99905.69;4852256;29;20036;-44
2023/09/12 06:09:18;;;;;;;3.38;2.22;;;;;;;27.95;30.52;99909.09;4859008;29;20362;-44
2023/09/12 06:11:44;;;;;;;6.03;2.40;;;;;;;28.66;29.99;99919.94;4857732;29;20018;-44
2023/09/12 06:14:09;;;;;;;3.80;2.42;;;;;;;29.12;29.62;99915.75;4857722;29;20104;-44
2023/09/12 06:16:35;;;;;;;6.43;2.28;;;;;;;29.31;28.94;99914.66;4858004;29;20491;-42
2023/09/12 06:19:00;;;;;;;3.95;2.15;;;;;;;29.14;28.60;99918.22;4841617;29;20104;-44
2023/09/12 06:21:26;;;;;;;5.57;2.20;;;;;;;28.91;29.25;99920.28;4838728;29;20026;-43
2023/09/12 06:24:09;;;;;;;6.38;2.58;;;;;;;29.18;29.00;99924.66;4838267;29;20418;-44
2023/09/12 06:26:34;;;;;;;5.22;2.88;;;;;;;28.95;29.40;99923.97;4838907;29;20109;-41
2023/09/12 06:29:00;;;;;;;4.43;2.42;;;;;;;29.44;29.10;99930.88;4838617;29;20447;-45
2023/09/12 06:31:25;;;;;;;3.22;2.28;;;;;;;30.29;27.82;99937.56;4838450;29;20037;-43
2023/09/12 06:33:50;;;;;;;4.30;2.20;;;;;;;30.56;28.04;99933.53;4845165;29;20081;-42
2023/09/12 06:36:16;;;;;;;5.15;2.28;;;;;;;30.28;27.82;99927.72;4856323;29;20579;-47
2023/09/12 06:38:41;;;;;;;5.90;2.30;;;;;;;30.60;27.53;99934.47;4843375;29;20022;-43
2023/09/12 06:41:06;;;;;;;4.63;2.67;;;;;;;30.37;27.75;99938.69;4849169;29;20073;-44
2023/09/12 06:43:32;;;;;;;4.85;3.00;;;;;;;30.81;27.30;99922.72;4855223;29;20470;-44
2023/09/12 06:45:57;;;;;;;8.52;5.55;;;;;;;31.44;27.06;99933.63;4852436;29;20025;-44
2023/09/12 06:48:24;;;;;;;6.13;3.97;;;;;;;31.37;27.24;99933.38;4857975;29;20036;-43
2023/09/12 06:50:50;;;;;;;5.40;2.92;;;;;;;31.63;26.78;99932.34;4869271;29;20037;-43
2023/09/12 06:53:15;;;;;;;3.88;2.80;;;;;;;31.71;26.84;99936.94;4856661;29;20028;-42
2023/09/12 06:55:41;;;;;;;3.60;2.20;;;;;;;32.29;26.04;99932.19;4856870;29;20482;-42
2023/09/12 06:58:07;;;;;;;5.40;2.13;;;;;;;32.02;26.39;99936.41;4854901;29;20040;-42
2023/09/12 07:00:32;;;;;;;4.00;2.25;;;;;;;32.19;26.22;99927.13;4857615;29;20498;-44
2023/09/12 07:02:58;;;;;;;4.50;2.10;;;;;;;32.41;25.49;99934.13;4857650;29;20030;-46
2023/09/12 07:05:23;;;;;;;5.72;2.35;;;;;;;32.52;25.79;99932.50;4856407;29;20057;-43
2023/09/12 07:07:48;;;;;;;4.75;2.47;;;;;;;32.63;25.65;99932.84;4857797;29;20609;-44
2023/09/12 07:10:14;;;;;;;4.20;1.80;;;;;;;32.22;25.67;99929.22;4858729;29;20653;-43
2023/09/12 07:12:39;;;;;;;3.78;2.08;;;;;;;31.05;26.85;99935.78;4857110;29;20088;-44
2023/09/12 07:15:05;;;;;;;4.47;1.85;;;;;;;31.41;26.52;99939.81;4854609;29;20029;-44
2023/09/12 07:17:31;;;;;;;5.82;1.77;;;;;;;31.70;25.82;99935.31;4857889;29;20025;-44
2023/09/12 07:19:57;;;;;;;6.38;2.00;;;;;;;31.96;26.03;99933.06;4857632;29;20435;-42
2023/09/12 07:22:22;;;;;;;3.63;2.20;;;;;;;32.26;25.35;99932.06;4857405;29;20132;-43
2023/09/12 07:24:47;;;;;;;7.22;2.33;;;;;;;31.66;26.09;99931.66;4857902;29;20428;-45
2023/09/12 07:27:13;;;;;;;6.07;2.38;;;;;;;31.51;26.34;99936.69;4857645;29;20025;-45
2023/09/12 07:29:38;;;;;;;5.55;2.30;;;;;;;31.50;27.00;99928.75;4857566;29;20018;-44
2023/09/12 07:32:04;;;;;;;3.90;2.60;;;;;;;31.25;26.85;99933.34;4855649;29;20053;-46
2023/09/12 07:34:29;;;;;;;3.30;2.00;;;;;;;32.25;25.52;99920.28;4857672;29;20025;-44
2023/09/12 07:36:55;;;;;;;2.42;2.03;;;;;;;32.54;25.44;99927.44;4857359;29;20477;-46
2023/09/12 07:39:20;;;;;;;3.13;1.83;;;;;;;33.09;25.06;99925.13;4856942;29;20032;-43
2023/09/12 07:41:46;;;;;;;3.22;2.00;;;;;;;33.43;24.75;99920.16;4857069;29;20017;-43
2023/09/12 07:44:11;;;;;;;2.65;1.60;;;;;;;33.73;24.98;99922.53;4853387;29;20077;-45
2023/09/12 07:46:40;;;;;;;3.53;2.00;;;;;;;34.04;24.75;99918.97;4856799;29;20099;-48
2023/09/12 07:49:05;;;;;;;3.92;2.03;;;;;;;33.88;24.96;99910.69;4854536;29;20125;-49
2023/09/12 07:51:30;;;;;;;4.80;2.00;;;;;;;34.44;24.49;99920.72;4857127;29;20029;-50
2023/09/12 07:53:56;;;;;;;6.82;2.60;;;;;;;34.59;23.94;99924.56;4856924;29;20162;-49
2023/09/12 07:56:21;;;;;;;4.70;2.22;;;;;;;34.65;24.03;99923.13;4857318;29;20040;-48
2023/09/12 07:58:49;;;;;;;5.65;3.33;;;;;;;33.75;24.10;99916.66;4856839;29;20084;-44
2023/09/12 08:01:14;;;;;;;2.85;2.20;;;;;;;34.36;24.40;99915.38;4856894;29;20044;-44
2023/09/12 08:03:42;;;;;;;3.65;2.20;;;;;;;34.23;24.03;99911.94;4856573;29;20030;-45
2023/09/12 08:06:08;;;;;;;3.53;2.58;;;;;;;34.27;24.10;99910.88;4853440;29;20128;-45
2023/09/12 08:08:34;;;;;;;3.75;2.50;;;;;;;34.44;24.03;99914.38;4855607;29;20168;-45
2023/09/12 08:11:00;;;;;;;5.00;2.58;;;;;;;34.98;23.97;99907.25;4854574;29;20044;-45
2023/09/12 08:13:30;;;;;;;3.63;2.30;;;;;;;34.64;24.68;99907.72;4855899;29;20178;-44
2023/09/12 08:15:56;;;;;;;4.72;2.50;;;;;;;34.63;24.17;99908.06;4856291;29;20629;-48
2023/09/12 08:18:21;;;;;;;3.42;2.45;;;;;;;34.90;24.04;99911.84;4856258;29;20029;-47
2023/09/12 08:20:47;;;;;;;4.97;2.40;;;;;;;35.20;23.54;99902.94;4856810;29;20037;-46
2023/09/12 08:23:12;;;;;;;4.93;2.17;;;;;;;35.16;23.60;99910.34;4856990;29;20038;-46
2023/09/12 08:25:39;;;;;;;4.03;2.03;;;;;;;35.57;23.38;99906.00;4845958;29;20038;-48
2023/09/12 08:28:05;;;;;;;4.13;2.30;;;;;;;35.49;22.92;99897.94;4842732;29;20488;-47
2023/09/12 08:30:30;;;;;;;2.97;1.90;;;;;;;35.14;22.60;99902.41;4841193;29;20099;-44
2023/09/12 08:32:56;;;;;;;2.05;1.73;;;;;;;35.39;22.34;99904.88;4842342;29;20038;-44
2023/09/12 08:35:21;;;;;;;2.83;2.10;;;;;;;35.77;21.93;99892.91;4842314;29;20091;-44
2023/09/12 08:37:47;;;;;;;3.10;1.77;;;;;;;35.84;22.12;99897.78;4842014;29;20034;-45
2023/09/12 08:40:13;;;;;;;3.00;2.03;;;;;;;34.96;22.41;99888.25;4842189;29;20040;-45
2023/09/12 08:42:43;;;;;;;3.15;1.95;;;;;;;34.94;22.92;99887.00;4842293;29;20038;-45
2023/09/12 08:45:16;;;;;;;3.67;2.30;;;;;;;34.70;23.43;99894.44;4841991;29;20026;-48
2023/09/12 08:47:46;;;;;;;4.82;1.80;;;;;;;34.53;23.37;99889.31;4842090;29;20445;-47
2023/09/12 08:50:16;;;;;;;2.75;1.95;;;;;;;34.42;23.97;99889.06;4841608;29;20030;-46
2023/09/12 08:52:43;;;;;;;3.28;2.00;;;;;;;34.96;23.46;99891.03;4841529;29;20094;-47
2023/09/12 08:55:10;;;;;;;3.50;1.83;;;;;;;34.86;23.68;99883.31;4841491;29;20062;-44
2023/09/12 08:57:38;;;;;;;5.63;1.90;;;;;;;35.05;23.19;99880.53;4841631;29;20037;-46
2023/09/12 09:00:13;;;;;;;3.47;1.85;;;;;;;35.09;22.69;99885.31;4841368;29;20383;-47
2023/09/12 09:02:42;;;;;;;2.40;1.80;;;;;;;34.97;23.04;99873.25;4841502;29;20070;-47
2023/09/12 09:05:09;;;;;;;2.70;1.90;;;;;;;35.31;22.85;99873.53;4841706;29;20037;-46
2023/09/12 09:07:42;;;;;;;4.60;1.80;;;;;;;35.65;22.43;99882.03;4841857;29;20118;-47
2023/09/12 09:10:14;;;;;;;4.72;1.85;;;;;;;36.02;21.69;99867.59;4841821;29;20563;-46
2023/09/12 09:12:40;;;;;;;2.10;1.60;;;;;;;35.76;21.79;99871.16;4840273;29;20030;-46
2023/09/12 09:15:26;;;;;;;2.92;1.88;;;;;;;34.35;23.07;99866.81;4841488;29;20121;-43
2023/09/12 09:17:53;;;;;;;4.45;2.03;;;;;;;33.36;24.74;99864.84;4852337;29;20217;-42
2023/09/12 09:20:29;;;;;;;2.90;1.90;;;;;;;32.73;25.72;99863.50;4859396;29;20033;-44
2023/09/12 09:23:00;;;;;;;2.55;1.65;;;;;;;32.69;25.75;99857.09;4856873;29;20517;-41
2023/09/12 09:25:26;;;;;;;2.67;1.77;;;;;;;32.56;25.05;99863.75;4859181;29;20066;-43
2023/09/12 09:27:52;;;;;;;2.15;1.67;;;;;;;32.63;24.92;99850.22;4859257;29;20053;-45
2023/09/12 09:30:18;;;;;;;3.33;1.83;;;;;;;32.80;24.71;99851.06;4859792;29;20024;-44
2023/09/12 09:32:45;;;;;;;2.88;1.95;;;;;;;32.55;24.92;99848.38;4859800;29;20033;-41
2023/09/12 09:35:10;;;;;;;2.45;1.70;;;;;;;32.62;24.72;99845.88;4859748;29;20056;-41
2023/09/12 09:37:36;;;;;;;3.90;1.85;;;;;;;32.87;24.75;99840.25;4855312;29;20037;-45
2023/09/12 09:40:05;;;;;;;3.72;2.05;;;;;;;32.62;25.16;99845.88;4857271;29;20258;-41
2023/09/12 09:42:30;;;;;;;7.35;3.38;;;;;;;32.45;25.61;99844.16;4859028;29;20108;-42
2023/09/12 09:44:56;;;;;;;9.65;6.28;;;;;;;33.11;24.42;99834.66;4858886;29;20546;-43
2023/09/12 09:47:21;;;;;;;4.60;1.80;;;;;;;32.66;24.33;99835.75;4857913;29;20033;-42
2023/09/12 09:49:47;;;;;;;3.08;1.60;;;;;;;31.88;24.02;99823.94;4855351;29;20029;-42
2023/09/12 09:52:12;;;;;;;5.97;1.92;;;;;;;31.81;24.82;99828.41;4859251;29;20093;-41
2023/09/12 09:54:45;;;;;;;1.90;1.52;;;;;;;32.03;24.17;99832.69;4859503;29;20077;-40
2023/09/12 09:57:10;;;;;;;4.15;1.70;;;;;;;32.13;23.92;99832.19;4857853;29;20553;-41
2023/09/12 09:59:36;;;;;;;2.53;1.70;;;;;;;31.94;24.12;99832.75;4857310;29;20125;-40
2023/09/12 10:02:06;;;;;;;3.00;1.70;;;;;;;32.45;23.79;99826.84;4846248;29;20364;-41
2023/09/12 10:04:34;;;;;;;3.10;1.67;;;;;;;32.74;23.05;99825.72;4850159;29;20097;-40
2023/09/12 10:06:59;;;;;;;6.97;4.32;;;;;;;32.26;24.28;99819.22;4859249;29;20041;-44
2023/09/12 10:09:27;;;;;;;11.57;7.97;;;;;;;32.47;24.15;99819.03;4859070;29;20033;-44
2023/09/12 10:11:54;;;;;;;3.15;2.15;;;;;;;32.12;24.34;99820.38;4859454;29;20104;-41
2023/09/12 10:14:22;;;;;;;3.13;1.88;;;;;;;31.86;24.92;99819.94;4859180;29;20521;-41
2023/09/12 10:16:49;;;;;;;3.88;2.25;;;;;;;31.96;25.04;99814.75;4859071;29;20029;-41
2023/09/12 10:19:38;;;;;;;2.95;2.03;;;;;;;32.11;25.01;99812.47;4858927;29;20056;-40
2023/09/12 10:22:17;;;;;;;2.95;1.98;;;;;;;31.90;24.86;99802.38;4858909;29;20033;-40
2023/09/12 10:24:45;;;;;;;2.30;1.65;;;;;;;32.02;24.71;99801.59;4854052;29;20476;-40
2023/09/12 10:27:12;;;;;;;3.38;2.00;;;;;;;32.15;24.69;99803.16;4853760;29;20121;-41
2023/09/12 10:29:38;;;;;;;3.83;1.92;;;;;;;31.83;25.22;99799.41;4858468;29;20038;-44
2023/09/12 10:32:04;;;;;;;5.03;2.40;;;;;;;32.07;24.88;99803.31;4855508;29;20102;-43
2023/09/12 10:34:32;;;;;;;3.50;2.05;;;;;;;32.21;24.55;99792.72;4856050;29;20025;-40
2023/09/12 10:37:05;;;;;;;4.05;2.10;;;;;;;32.08;25.30;99799.41;4857596;29;20022;-40
2023/09/12 10:39:32;;;;;;;4.80;2.30;;;;;;;32.22;25.07;99791.59;4856943;29;20045;-40
2023/09/12 10:41:59;;;;;;;6.65;2.33;;;;;;;31.79;25.31;99787.50;4855560;29;20033;-41
2023/09/12 10:44:25;;;;;;;3.92;2.35;;;;;;;31.89;24.97;99788.97;4857149;29;20181;-41
2023/09/12 10:46:51;;;;;;;6.63;2.38;;;;;;;31.75;24.78;99781.06;4856555;29;20762;-39
2023/09/12 10:49:18;;;;;;;4.75;2.58;;;;;;;31.40;26.13;99784.25;4859083;29;20026;-40
2023/09/12 10:51:46;;;;;;;4.18;2.50;;;;;;;31.56;25.82;99768.69;4856154;29;20132;-39
2023/09/12 10:54:40;;;;;;;6.28;2.50;;;;;;;32.09;25.78;99765.25;4858401;29;20033;-41
2023/09/12 10:57:07;;;;;;;4.30;2.60;;;;;;;31.74;25.42;99771.25;4854448;29;20101;-40
2023/09/12 10:59:36;;;;;;;4.07;2.33;;;;;;;31.41;25.81;99763.06;4856224;29;20085;-42
2023/09/12 11:02:20;;;;;;;;;;;;;;;31.61;26.06;99764.13;4859164;29;20037;-40
2023/09/12 11:04:46;;;;;;;3.55;2.22;;;;;;;31.82;25.82;99762.06;4853254;29;19920;-43
2023/09/12 11:07:31;;;;;;;10.55;2.40;;;;;;;31.96;25.77;99747.91;4856058;29;20034;-44
2023/09/12 11:10:19;;;;;;;5.28;2.60;;;;;;;32.10;25.11;99747.56;4854101;29;20029;-40
2023/09/12 11:12:50;;;;;;;4.55;2.47;;;;;;;31.95;25.50;99744.38;4854404;29;20044;-42
2023/09/12 11:15:15;;;;;;;5.22;2.80;;;;;;;31.74;25.96;99747.28;4855603;29;20029;-41
2023/09/12 11:17:42;;;;;;;3.22;2.50;;;;;;;31.66;26.37;99744.63;4858278;29;20029;-41
2023/09/12 11:20:11;;;;;;;5.32;2.30;;;;;;;31.41;26.39;99738.31;4857495;29;20033;-41
2023/09/12 11:22:45;;;;;;;3.35;2.50;;;;;;;30.92;26.71;99739.88;4857179;29;20029;-41
2023/09/12 11:25:26;;;;;;;5.20;2.28;;;;;;;30.85;26.49;99734.13;4855683;29;20112;-43
2023/09/12 11:27:51;;;;;;;6.45;2.65;;;;;;;31.12;27.07;99734.66;4856078;29;20482;-41
2023/09/12 11:30:18;;;;;;;4.68;2.13;;;;;;;31.12;26.67;99705.22;4856148;29;20037;-41
2023/09/12 11:32:50;;;;;;;5.22;2.50;;;;;;;31.32;25.77;99728.25;4856818;29;20422;-45